Time;durP1;ratioP1;P1;durP2;ratioP2;P2;SDS_P1;SDS_P2;PMS_P1;PMS_P2;Temp;Humidity;BMP_temperature;BMP_pressure;BME280_temperature;BME280_humidity;BME280_pressure;Samples;Min_cycle;Max_cycle;Signal;HPM_P1;HPM_P2
2023/10/14 00:01:36;;;;;;;10.95;4.43;;;;;;;7.88;68.24;99442.69;4873666;29;20067;-93
2023/10/14 00:04:09;;;;;;;14.30;4.30;;;;;;;7.71;68.18;99415.94;4812757;29;20055;-94
2023/10/14 00:06:38;;;;;;;18.65;4.18;;;;;;;7.70;68.28;99412.44;4814216;29;20567;-92
2023/10/14 00:09:11;;;;;;;17.05;3.83;;;;;;;8.02;68.45;99468.09;4801301;29;20057;-94
2023/10/14 00:11:51;;;;;;;13.45;4.03;;;;;;;7.63;68.54;99403.00;4807275;29;20159;-91
2023/10/14 00:14:18;;;;;;;12.38;4.38;;;;;;;7.56;68.58;99381.59;4796649;29;20055;-91
2023/10/14 00:16:51;;;;;;;;;;;;;;;8.20;68.58;99474.66;4787260;29;20034;-93
2023/10/14 00:19:19;;;;;;;12.85;4.20;;;;;;;7.95;68.39;99443.16;4794245;29;20600;-92
2023/10/14 00:21:48;;;;;;;11.75;4.07;;;;;;;8.02;68.17;99431.91;4800621;29;20095;-91
2023/10/14 00:24:25;;;;;;;16.67;4.32;;;;;;;8.14;67.84;99452.13;4790852;29;20113;-93
2023/10/14 00:26:55;;;;;;;;;;;;;;;8.24;68.13;99471.06;4777143;29;20091;-92
2023/10/14 00:29:21;;;;;;;12.70;3.92;;;;;;;7.83;68.28;99408.19;4819826;29;19924;-95
2023/10/14 00:31:50;;;;;;;15.30;3.90;;;;;;;8.30;68.13;99474.50;4787322;29;20075;-91
2023/10/14 00:34:25;;;;;;;17.60;4.88;;;;;;;8.01;67.99;99403.84;4826846;29;20056;-91
2023/10/14 00:36:58;;;;;;;10.02;4.50;;;;;;;7.96;67.75;99395.75;4847931;29;20041;-94
2023/10/14 00:39:28;;;;;;;10.23;4.10;;;;;;;8.17;67.89;99418.88;4860001;29;20047;-93
2023/10/14 00:41:56;;;;;;;9.82;4.22;;;;;;;8.39;67.71;99455.63;4888121;29;20029;-95
2023/10/14 00:44:24;;;;;;;;;;;;;;;8.36;67.90;99453.47;4869179;29;20037;-92
2023/10/14 00:46:56;;;;;;;12.30;3.80;;;;;;;7.69;68.25;99364.56;4874181;29;19926;-93
2023/10/14 00:49:31;;;;;;;12.90;4.20;;;;;;;7.66;68.28;99354.25;4887898;29;20040;-93
2023/10/14 00:52:05;;;;;;;8.98;3.50;;;;;;;7.94;68.28;99408.84;4869488;29;20105;-91
2023/10/14 00:59:47;;;;;;;11.40;3.60;;;;;;;8.04;68.41;99426.97;4879630;29;20081;-91
2023/10/14 01:02:14;;;;;;;10.70;3.88;;;;;;;8.10;68.62;99428.50;4874760;29;20044;-93
2023/10/14 01:04:51;;;;;;;8.77;3.97;;;;;;;8.07;68.45;99418.22;4865722;29;20021;-92
2023/10/14 01:07:18;;;;;;;;;;;;;;;8.29;68.52;99453.03;4883759;29;20060;-93
2023/10/14 01:09:52;;;;;;;9.37;3.87;;;;;;;7.74;68.45;99364.47;4868546;29;19928;-92
2023/10/14 01:12:27;;;;;;;12.00;4.18;;;;;;;8.36;68.38;99440.66;4851307;29;20029;-93
2023/10/14 01:14:59;;;;;;;11.55;4.10;;;;;;;8.30;67.93;99413.78;4851057;29;20041;-92
2023/10/14 01:17:29;;;;;;;22.17;4.40;;;;;;;8.40;67.78;99424.56;4867128;29;20056;-94
2023/10/14 01:20:25;;;;;;;14.30;4.00;;;;;;;8.00;67.88;99383.97;4849759;29;20044;-92
2023/10/14 01:22:57;;;;;;;17.88;4.18;;;;;;;8.15;68.41;99415.66;4860344;29;20113;-95
2023/10/14 01:25:29;;;;;;;14.82;3.78;;;;;;;8.24;68.20;99413.88;4860378;29;20037;-93
2023/10/14 01:27:59;;;;;;;11.90;3.80;;;;;;;8.10;68.72;99404.81;4845477;29;20041;-92
2023/10/14 01:30:39;;;;;;;12.75;3.88;;;;;;;7.87;68.83;99360.22;4856010;29;20507;-91
2023/10/14 01:33:24;;;;;;;10.93;3.75;;;;;;;7.86;68.70;99355.09;4831452;29;20049;-91
2023/10/14 01:35:51;;;;;;;9.25;3.75;;;;;;;7.72;68.54;99325.88;4872742;29;20041;-95
2023/10/14 01:38:17;;;;;;;;;;;;;;;8.38;68.54;99422.16;4850560;29;20055;-92
2023/10/14 01:40:49;;;;;;;;;;;;;;;8.37;68.45;99423.19;4847304;29;19924;-91
2023/10/14 01:43:17;;;;;;;13.32;3.25;;;;;;;7.79;68.98;99346.47;4855759;29;19911;-93
2023/10/14 01:48:21;;;;;;;9.38;3.55;;;;;;;7.72;68.70;99339.50;4870860;29;20049;-95
2023/10/14 01:50:54;;;;;;;7.28;3.80;;;;;;;8.11;68.69;99394.72;4865827;29;20065;-92
2023/10/14 01:53:27;;;;;;;11.48;3.60;;;;;;;7.96;68.84;99357.66;4859823;29;20045;-92
2023/10/14 01:55:59;;;;;;;10.43;3.25;;;;;;;8.36;68.65;99428.97;4858393;29;20029;-93
2023/10/14 02:01:00;;;;;;;10.45;3.65;;;;;;;7.89;68.96;99355.31;4879018;29;20056;-92
2023/10/14 02:03:33;;;;;;;18.95;3.70;;;;;;;8.28;69.07;99426.88;4828604;29;20151;-92
2023/10/14 02:05:59;;;;;;;13.57;4.13;;;;;;;7.87;68.88;99362.94;4863268;29;20096;-95
2023/10/14 02:08:26;;;;;;;14.87;4.27;;;;;;;8.21;69.20;99422.63;4835156;29;20259;-95
2023/10/14 02:10:53;;;;;;;17.73;4.78;;;;;;;7.81;69.16;99355.13;4827679;29;20046;-91
2023/10/14 02:13:21;;;;;;;12.80;4.50;;;;;;;7.85;69.49;99356.19;4844781;29;20056;-92
2023/10/14 02:15:52;;;;;;;12.85;4.32;;;;;;;8.32;69.07;99420.56;4840060;29;20037;-92
2023/10/14 02:18:22;;;;;;;10.10;4.00;;;;;;;7.87;69.12;99359.41;4834497;29;20045;-91
2023/10/14 02:20:56;;;;;;;18.35;5.03;;;;;;;7.64;69.37;99307.47;4842412;29;20041;-93
2023/10/14 02:23:44;;;;;;;11.30;4.38;;;;;;;8.27;69.17;99408.94;4842502;29;20044;-96
2023/10/14 02:26:22;;;;;;;11.85;4.45;;;;;;;8.27;69.06;99415.19;4862224;29;20028;-91
2023/10/14 02:28:52;;;;;;;14.15;4.82;;;;;;;8.19;69.33;99407.69;4843627;29;20045;-92
2023/10/14 02:31:29;;;;;;;13.43;4.80;;;;;;;8.04;69.50;99373.31;4831590;29;20147;-93
2023/10/14 02:33:56;;;;;;;;;;;;;;;8.37;69.07;99404.13;4840877;29;20041;-92
2023/10/14 02:36:28;;;;;;;18.95;4.57;;;;;;;8.20;69.03;99361.09;4845404;29;19927;-91
2023/10/14 02:38:58;;;;;;;9.75;4.40;;;;;;;7.71;69.02;99285.34;4868119;29;20025;-92
2023/10/14 02:41:32;;;;;;;13.20;4.35;;;;;;;8.06;69.46;99343.91;4883482;29;20021;-92
2023/10/14 02:46:41;;;;;;;13.88;4.72;;;;;;;8.21;69.45;99373.63;4866739;29;20076;-93
2023/10/14 02:49:13;;;;;;;16.52;4.63;;;;;;;7.89;70.06;99332.72;4849360;29;20041;-92
2023/10/14 02:51:44;;;;;;;16.25;4.50;;;;;;;8.16;69.73;99362.00;4861779;29;20060;-92
2023/10/14 02:54:26;;;;;;;13.80;4.35;;;;;;;8.00;69.41;99329.53;4846348;29;20128;-92
2023/10/14 02:56:57;;;;;;;15.15;5.03;;;;;;;8.22;69.58;99363.53;4833094;29;20041;-91
2023/10/14 03:07:27;;;;;;;13.95;4.80;;;;;;;7.76;69.82;99286.09;4847751;29;20054;-93
2023/10/14 03:10:18;;;;;;;16.67;4.25;;;;;;;7.97;70.02;99313.00;4844394;29;20129;-93
2023/10/14 03:12:57;;;;;;;19.25;4.22;;;;;;;7.87;70.16;99313.16;4841086;29;20042;-92
2023/10/14 03:15:30;;;;;;;17.80;4.20;;;;;;;7.72;70.72;99286.97;4838769;29;20250;-96
2023/10/14 03:17:58;;;;;;;22.13;4.50;;;;;;;7.68;71.11;99302.25;4814548;29;20052;-91
2023/10/14 03:23:23;;;;;;;13.18;3.88;;;;;;;7.77;71.68;99304.03;4845713;29;20037;-92
2023/10/14 03:26:01;;;;;;;10.85;3.25;;;;;;;7.60;71.04;99262.13;4827211;29;20058;-93
2023/10/14 03:28:28;;;;;;;13.10;4.00;;;;;;;7.67;70.82;99257.13;4847998;29;20022;-93
2023/10/14 03:30:55;;;;;;;20.77;3.85;;;;;;;7.81;70.69;99273.50;4841732;29;20507;-94
2023/10/14 03:33:24;;;;;;;10.35;3.42;;;;;;;7.33;70.93;99198.31;4866884;29;20079;-93
2023/10/14 03:36:03;;;;;;;12.82;3.95;;;;;;;7.67;71.09;99233.44;4849232;29;20056;-94
2023/10/14 03:41:18;;;;;;;12.57;3.58;;;;;;;8.03;71.32;99287.31;4846081;29;20575;-91
2023/10/14 03:46:40;;;;;;;10.93;3.58;;;;;;;7.62;71.76;99230.81;4845094;29;20061;-94
2023/10/14 03:49:29;;;;;;;16.23;3.40;;;;;;;7.17;71.78;99167.81;4828963;29;20121;-92
2023/10/14 03:51:59;;;;;;;13.65;3.75;;;;;;;7.68;71.79;99245.97;4844381;29;20053;-93
2023/10/14 03:54:41;;;;;;;11.82;3.40;;;;;;;7.26;72.09;99181.56;4843606;29;20053;-92
2023/10/14 03:57:20;;;;;;;19.77;3.42;;;;;;;7.68;72.22;99240.50;4831195;29;20078;-92
2023/10/14 03:59:48;;;;;;;15.73;4.03;;;;;;;7.42;71.98;99193.03;4842424;29;20050;-92
2023/10/14 04:02:22;;;;;;;11.35;3.30;;;;;;;7.52;71.75;99210.00;4845431;29;20046;-92
2023/10/14 04:05:01;;;;;;;11.30;3.40;;;;;;;7.27;72.14;99172.31;4812134;29;20057;-92
2023/10/14 04:07:33;;;;;;;13.68;3.35;;;;;;;7.39;72.51;99204.50;4847656;29;20053;-93
2023/10/14 04:10:26;;;;;;;19.08;3.85;;;;;;;7.41;72.37;99205.81;4837759;29;20056;-93
2023/10/14 04:12:54;;;;;;;8.80;3.15;;;;;;;7.23;72.38;99169.38;4866086;29;20064;-93
2023/10/14 04:15:34;;;;;;;13.95;3.47;;;;;;;7.80;72.10;99241.97;4864863;29;20056;-93
2023/10/14 04:18:12;;;;;;;15.80;3.15;;;;;;;8.07;72.00;99252.94;4851843;29;20084;-92
2023/10/14 04:20:46;;;;;;;13.40;3.88;;;;;;;7.46;71.62;99150.53;4849099;29;20045;-92
2023/10/14 04:23:26;;;;;;;13.23;3.67;;;;;;;7.98;71.64;99238.41;4863724;29;20065;-92
2023/10/14 04:26:02;;;;;;;13.57;3.30;;;;;;;7.99;71.62;99220.97;4850998;29;20145;-92
2023/10/14 04:28:39;;;;;;;13.60;3.50;;;;;;;7.89;71.54;99204.81;4845944;29;20104;-93
2023/10/14 04:31:16;;;;;;;15.53;3.80;;;;;;;7.51;71.43;99136.84;4868365;29;20045;-92
2023/10/14 04:33:45;;;;;;;20.05;3.80;;;;;;;7.95;71.52;99207.16;4876041;29;20443;-93
2023/10/14 04:38:39;;;;;;;14.20;3.63;;;;;;;7.77;71.20;99148.91;4848412;29;20076;-92
2023/10/14 04:41:13;;;;;;;6.95;3.08;;;;;;;7.83;71.01;99144.22;4848188;29;20428;-93
2023/10/14 04:46:16;;;;;;;15.25;4.05;;;;;;;8.02;70.71;99146.06;4864104;29;20112;-92
2023/10/14 04:49:29;;;;;;;9.93;3.65;;;;;;;7.82;70.97;99120.03;4865675;29;20052;-93
2023/10/14 04:51:49;;;;;;;12.40;3.38;;;;;;;8.50;70.72;99211.09;4863832;29;20055;-92
2023/10/14 04:54:19;;;;;;;16.05;3.83;;;;;;;8.52;70.61;99204.25;4836443;29;20079;-93
2023/10/14 04:56:48;;;;;;;10.43;3.92;;;;;;;7.85;70.58;99097.66;4833938;29;20041;-93
2023/10/14 05:02:21;;;;;;;8.90;3.55;;;;;;;8.24;70.68;99166.06;4893427;29;20045;-93
2023/10/14 05:05:06;;;;;;;12.10;4.22;;;;;;;7.93;70.61;99095.03;4864197;29;20041;-94
2023/10/14 05:10:15;;;;;;;11.77;3.45;;;;;;;8.17;70.84;99129.44;4876687;29;20061;-90
2023/10/14 05:12:51;;;;;;;12.37;3.57;;;;;;;8.27;70.55;99125.72;4829839;29;20048;-92
2023/10/14 05:15:27;;;;;;;12.68;3.88;;;;;;;8.42;70.30;99139.06;4846304;29;20030;-93
2023/10/14 05:18:00;;;;;;;13.75;4.10;;;;;;;8.50;69.95;99132.09;4807291;29;20102;-94
2023/10/14 05:20:54;;;;;;;20.45;4.05;;;;;;;8.69;69.75;99149.94;4777656;29;20073;-93
2023/10/14 05:23:19;;;;;;;15.82;4.38;;;;;;;8.60;69.44;99112.81;4779741;29;20065;-94
2023/10/14 05:26:06;;;;;;;19.73;4.32;;;;;;;8.62;69.28;99100.50;4807629;29;20038;-95
2023/10/14 05:28:36;;;;;;;19.95;4.72;;;;;;;8.81;69.17;99135.00;4805315;29;20035;-93
2023/10/14 05:31:16;;;;;;;14.45;4.15;;;;;;;8.59;69.21;99098.38;4765458;29;20050;-93
2023/10/14 05:48:11;;;;;;;13.50;3.85;;;;;;;9.24;68.63;99101.84;4897335;29;20064;-93
2023/10/14 05:50:40;;;;;;;20.30;3.90;;;;;;;9.16;68.40;99079.66;4884228;29;20048;-95
2023/10/14 05:53:12;;;;;;;14.27;3.83;;;;;;;9.22;68.24;99096.72;4867044;29;20056;-94
2023/10/14 05:55:39;;;;;;;13.90;3.92;;;;;;;9.58;68.12;99120.41;4856710;29;20069;-93
2023/10/14 05:58:09;;;;;;;20.42;4.88;;;;;;;9.22;67.76;99063.19;4882931;29;20041;-91
2023/10/14 06:00:38;;;;;;;15.50;4.60;;;;;;;9.03;67.56;99017.78;4850545;29;20045;-93
2023/10/14 06:09:23;;;;;;;17.42;4.30;;;;;;;9.43;67.23;99061.53;4916687;29;20296;-92
2023/10/14 06:20:42;;;;;;;21.70;5.55;;;;;;;9.45;67.84;99007.47;4896862;27;20053;-94
2023/10/14 06:23:49;;;;;;;17.08;3.92;;;;;;;9.59;67.98;99019.09;4859591;29;20045;-92
2023/10/14 06:26:18;;;;;;;14.77;4.85;;;;;;;9.51;68.51;98999.97;4866095;29;20044;-92
2023/10/14 06:28:49;;;;;;;19.40;4.60;;;;;;;9.38;68.86;98977.13;4866920;29;20029;-91
2023/10/14 06:31:18;;;;;;;15.93;5.68;;;;;;;9.45;69.50;98990.31;4845602;29;20049;-87
2023/10/14 06:33:45;;;;;;;23.48;7.90;;;;;;;9.79;69.76;99045.03;4889239;29;20550;-89
2023/10/14 06:36:15;;;;;;;20.77;7.28;;;;;;;9.89;70.58;99050.22;4880761;29;20044;-88
2023/10/14 06:38:44;;;;;;;20.20;6.15;;;;;;;9.97;70.65;99061.53;4899214;29;20071;-87
2023/10/14 06:41:16;;;;;;;12.35;5.50;;;;;;;9.79;71.02;99033.31;4875907;29;20100;-89
2023/10/14 06:43:44;;;;;;;15.40;5.60;;;;;;;9.63;71.03;99031.03;4879710;29;20140;-88
2023/10/14 06:46:12;;;;;;;15.23;5.85;;;;;;;9.81;71.64;99053.72;4898715;29;20037;-91
2023/10/14 06:48:41;;;;;;;20.55;8.02;;;;;;;9.48;72.24;98979.56;4897945;29;20080;-87
2023/10/14 06:51:09;;;;;;;21.73;5.82;;;;;;;9.83;72.35;99020.66;4884005;29;20115;-84
2023/10/14 06:53:36;;;;;;;17.67;7.50;;;;;;;9.85;72.08;99021.94;4878800;29;20052;-85
2023/10/14 06:56:02;;;;;;;19.52;7.22;;;;;;;10.03;72.62;99028.28;4878474;29;20052;-84
2023/10/14 06:58:29;;;;;;;20.10;8.00;;;;;;;9.85;72.67;98997.38;4885050;29;20055;-84
2023/10/14 07:00:58;;;;;;;27.63;9.32;;;;;;;9.94;72.45;98983.78;4898797;29;20101;-85
2023/10/14 07:03:25;;;;;;;24.25;7.00;;;;;;;10.07;72.37;98992.97;4900992;29;20044;-84
2023/10/14 07:05:57;;;;;;;14.43;5.70;;;;;;;10.18;72.38;99004.41;4907594;29;20036;-89
2023/10/14 07:08:27;;;;;;;22.10;6.53;;;;;;;10.01;72.43;98966.91;4905782;29;20040;-89
2023/10/14 07:10:55;;;;;;;21.42;5.97;;;;;;;10.06;72.27;98978.47;4876878;29;20040;-90
2023/10/14 07:13:22;;;;;;;21.80;5.97;;;;;;;10.24;72.97;98990.25;4879419;29;20040;-89
2023/10/14 07:16:11;;;;;;;22.05;6.60;;;;;;;10.28;72.88;98987.72;4904785;29;20511;-90
2023/10/14 07:18:38;;;;;;;18.40;5.50;;;;;;;10.23;73.38;98985.09;4904727;29;20133;-89
2023/10/14 07:21:08;;;;;;;14.95;4.68;;;;;;;10.17;73.18;98962.63;4910616;29;20045;-87
2023/10/14 07:23:36;;;;;;;16.40;5.25;;;;;;;10.27;73.78;98962.34;4910100;29;20059;-87
2023/10/14 07:26:15;;;;;;;19.38;5.10;;;;;;;9.95;72.59;98917.09;4917143;29;20064;-93
2023/10/14 07:28:43;;;;;;;19.70;5.78;;;;;;;10.20;73.47;98937.41;4883839;29;20040;-92
2023/10/14 07:31:15;;;;;;;22.48;5.75;;;;;;;9.98;73.79;98886.44;4885157;29;20076;-91
2023/10/14 07:33:43;;;;;;;18.48;5.03;;;;;;;10.29;73.57;98923.75;4901972;29;20052;-92
2023/10/14 07:36:11;;;;;;;28.50;5.28;;;;;;;9.96;73.92;98885.13;4900463;29;20510;-91
2023/10/14 07:38:38;;;;;;;15.10;4.85;;;;;;;10.12;73.88;98924.53;4869039;29;20052;-93
2023/10/14 07:41:10;;;;;;;17.45;4.43;;;;;;;9.97;74.26;98914.06;4885319;29;20073;-91
2023/10/14 07:43:37;;;;;;;17.88;5.35;;;;;;;9.80;75.56;98880.16;4903301;29;20080;-90
2023/10/14 07:46:03;;;;;;;13.45;4.13;;;;;;;9.96;74.91;98924.16;4896995;29;20044;-90
2023/10/14 07:48:29;;;;;;;18.08;4.35;;;;;;;9.70;75.36;98863.25;4911000;29;20040;-93
2023/10/14 07:50:58;;;;;;;20.45;4.13;;;;;;;9.87;75.89;98896.88;4895962;29;20072;-91
2023/10/14 07:53:25;;;;;;;20.70;4.40;;;;;;;9.60;75.88;98856.16;4897555;29;20060;-92
2023/10/14 07:55:53;;;;;;;;;;;;;;;10.14;76.42;98921.50;4883921;29;20076;-91
2023/10/14 07:58:26;;;;;;;16.67;3.90;;;;;;;10.14;76.88;98916.03;4883645;29;19927;-90
2023/10/14 08:00:58;;;;;;;16.88;5.03;;;;;;;10.15;76.85;98904.75;4859102;29;20028;-90
2023/10/14 08:03:36;;;;;;;23.63;5.43;;;;;;;9.80;76.47;98843.84;4892829;29;20064;-90
2023/10/14 08:06:06;;;;;;;18.25;4.97;;;;;;;9.97;77.06;98862.19;4883625;29;20068;-91
2023/10/14 08:08:42;;;;;;;14.82;4.90;;;;;;;9.77;76.68;98845.31;4880266;29;20101;-91
2023/10/14 08:11:12;;;;;;;16.52;4.22;;;;;;;9.62;77.39;98815.72;4879609;29;20100;-90
2023/10/14 08:13:43;;;;;;;15.02;5.22;;;;;;;10.11;77.13;98881.97;4882309;29;20094;-91
2023/10/14 08:16:27;;;;;;;17.90;4.55;;;;;;;10.09;77.30;98867.81;4864087;29;20059;-89
2023/10/14 08:18:54;;;;;;;17.38;4.68;;;;;;;9.89;77.55;98844.66;4894281;29;20091;-90
2023/10/14 08:21:23;;;;;;;14.40;4.82;;;;;;;9.83;78.04;98818.63;4878812;29;20052;-91
2023/10/14 08:23:49;;;;;;;12.57;4.40;;;;;;;9.72;77.61;98798.25;4863923;29;20435;-91
2023/10/14 08:26:36;;;;;;;20.55;5.68;;;;;;;9.73;77.71;98806.09;4914049;23;20116;-92
2023/10/14 08:29:02;;;;;;;12.57;4.13;;;;;;;9.39;78.09;98757.75;4885936;29;20053;-90
2023/10/14 08:31:34;;;;;;;22.07;5.17;;;;;;;10.06;78.51;98841.13;4900263;29;20028;-90
2023/10/14 08:34:07;;;;;;;20.30;5.55;;;;;;;10.11;78.75;98824.59;4899284;29;20048;-88
2023/10/14 08:36:34;;;;;;;24.40;6.00;;;;;;;9.90;78.65;98783.50;4916572;29;20044;-89
2023/10/14 08:39:01;;;;;;;13.43;4.53;;;;;;;10.14;79.05;98814.97;4902254;29;20035;-90
2023/10/14 08:41:27;;;;;;;16.65;5.50;;;;;;;9.86;78.80;98768.88;4886618;29;20806;-89
2023/10/14 08:43:58;;;;;;;16.42;5.03;;;;;;;10.05;79.02;98795.84;4886691;29;20036;-90
2023/10/14 08:46:34;;;;;;;14.88;4.90;;;;;;;9.60;79.15;98727.91;4899794;29;20060;-90
2023/10/14 08:49:03;;;;;;;;;;;;;;;10.26;79.45;98804.22;4897261;29;20533;-92
2023/10/14 08:51:32;;;;;;;11.98;3.85;;;;;;;10.10;79.30;98777.38;4883566;29;20014;-92
2023/10/14 08:54:01;;;;;;;10.82;4.10;;;;;;;10.13;79.87;98762.25;4866723;29;20036;-92
2023/10/14 08:56:49;;;;;;;14.35;4.20;;;;;;;10.01;80.30;98751.19;4884405;29;20048;-91
2023/10/14 08:59:16;;;;;;;14.25;5.13;;;;;;;9.87;79.80;98743.19;4901346;23;20064;-91
2023/10/14 09:01:52;;;;;;;19.67;5.45;;;;;;;9.78;80.12;98704.97;4883803;29;20052;-91
2023/10/14 09:04:39;;;;;;;15.00;5.10;;;;;;;10.24;80.09;98768.19;4883364;29;20056;-90
2023/10/14 09:07:32;;;;;;;14.13;4.63;;;;;;;10.36;80.50;98771.09;4895437;29;20072;-92
2023/10/14 09:10:06;;;;;;;19.02;5.55;;;;;;;10.15;79.80;98734.63;4881586;29;20037;-93
2023/10/14 09:12:34;;;;;;;15.75;5.00;;;;;;;10.16;80.46;98703.47;4845532;29;20049;-87
2023/10/14 09:15:01;;;;;;;19.67;5.57;;;;;;;10.04;79.99;98707.66;4888639;29;20060;-85
2023/10/14 09:17:29;;;;;;;15.10;4.97;;;;;;;10.47;80.08;98747.78;4894476;29;20041;-85
2023/10/14 09:19:56;;;;;;;10.43;4.28;;;;;;;10.35;79.83;98723.03;4891967;29;20055;-88
2023/10/14 09:22:28;;;;;;;19.85;5.30;;;;;;;10.43;79.96;98715.94;4908246;29;20040;-86
2023/10/14 09:24:58;;;;;;;9.50;4.00;;;;;;;10.69;79.43;98735.78;4892919;29;20119;-87
2023/10/14 09:27:30;;;;;;;7.43;4.40;;;;;;;10.84;79.18;98748.13;4910978;29;20056;-85
2023/10/14 09:30:18;;;;;;;15.60;5.20;;;;;;;10.88;78.46;98742.78;4910292;29;20130;-94
2023/10/14 09:32:44;;;;;;;17.02;5.53;;;;;;;10.80;78.87;98690.56;4908199;29;20123;-87
2023/10/14 09:35:15;;;;;;;19.60;5.40;;;;;;;11.27;77.91;98733.41;4907178;29;20502;-86
2023/10/14 09:37:47;;;;;;;13.38;5.47;;;;;;;11.06;77.80;98681.41;4911157;29;20049;-86
2023/10/14 09:40:13;;;;;;;;;;;;;;;11.53;77.06;98733.22;4911655;29;20052;-86
2023/10/14 09:42:40;;;;;;;10.55;4.88;;;;;;;11.66;75.60;98742.31;4894531;29;20011;-88
2023/10/14 09:45:11;;;;;;;21.60;5.25;;;;;;;11.76;75.38;98725.50;4910542;29;20052;-85
2023/10/14 09:47:45;;;;;;;10.82;4.80;;;;;;;11.63;75.02;98667.13;4899170;29;20056;-91
2023/10/14 09:50:13;;;;;;;12.68;4.55;;;;;;;11.82;74.14;98682.25;4895127;29;20043;-87
2023/10/14 09:52:45;;;;;;;15.13;4.85;;;;;;;11.96;73.70;98686.34;4911815;29;20419;-86
2023/10/14 09:55:15;;;;;;;12.80;4.18;;;;;;;11.98;73.00;98667.59;4912147;29;20064;-91
2023/10/14 09:57:45;;;;;;;21.25;6.10;;;;;;;12.38;73.18;98699.09;4915932;29;20104;-88
2023/10/14 10:00:12;;;;;;;12.90;4.95;;;;;;;12.01;72.03;98638.75;4863115;29;20108;-87
2023/10/14 10:02:48;;;;;;;17.38;4.55;;;;;;;12.35;71.75;98692.38;4892774;29;20052;-87
2023/10/14 10:05:21;;;;;;;15.93;5.70;;;;;;;11.98;72.60;98629.25;4841399;29;20152;-87
2023/10/14 10:08:02;;;;;;;13.70;5.40;;;;;;;12.32;72.14;98687.59;4893759;29;20049;-85
2023/10/14 10:10:36;;;;;;;12.15;4.15;;;;;;;12.26;71.81;98683.44;4900386;29;20510;-86
2023/10/14 10:13:08;;;;;;;12.75;4.97;;;;;;;12.02;72.62;98654.06;4898981;29;20041;-88
2023/10/14 10:15:35;;;;;;;15.45;4.47;;;;;;;11.97;72.21;98670.69;4911599;29;20575;-86
2023/10/14 10:18:16;;;;;;;12.93;4.78;;;;;;;12.11;72.71;98679.41;4906742;29;20048;-86
2023/10/14 10:20:56;;;;;;;12.60;4.40;;;;;;;12.23;72.16;98689.59;4862172;29;20139;-87
2023/10/14 10:23:24;;;;;;;15.70;5.22;;;;;;;12.29;72.49;98710.19;4894407;29;20100;-86
2023/10/14 10:26:12;;;;;;;12.07;4.80;;;;;;;12.16;72.49;98683.88;4918355;29;20067;-86
2023/10/14 10:28:40;;;;;;;10.52;4.20;;;;;;;12.25;71.97;98661.84;4893746;29;20554;-86
2023/10/14 10:31:11;;;;;;;14.68;4.95;;;;;;;12.45;71.89;98702.13;4872568;29;20440;-87
2023/10/14 10:33:58;;;;;;;12.90;4.22;;;;;;;12.50;72.08;98698.34;4902221;29;20051;-87
2023/10/14 10:36:36;;;;;;;11.52;4.00;;;;;;;12.40;71.70;98672.16;4890843;29;20042;-86
2023/10/14 10:39:15;;;;;;;8.90;4.30;;;;;;;12.55;72.00;98673.44;4891152;29;20044;-88
2023/10/14 10:42:00;;;;;;;12.32;4.28;;;;;;;12.65;71.37;98689.44;4907531;29;20044;-85
2023/10/14 10:44:33;;;;;;;12.77;4.25;;;;;;;12.66;72.05;98683.63;4877881;29;20154;-87
2023/10/14 10:47:02;;;;;;;9.20;3.88;;;;;;;12.78;71.03;98682.00;4862136;29;20125;-92
2023/10/14 10:49:59;;;;;;;9.20;3.97;;;;;;;12.87;70.90;98685.44;4877599;29;20048;-86
2023/10/14 10:52:26;;;;;;;10.07;3.95;;;;;;;12.72;71.02;98662.25;4857991;29;20044;-87
2023/10/14 10:54:52;;;;;;;;;;;;;;;12.92;71.69;98690.72;4890057;29;20053;-86
2023/10/14 10:57:19;;;;;;;8.88;4.15;;;;;;;12.74;72.21;98676.41;4908818;29;19927;-86
2023/10/14 10:59:46;;;;;;;13.57;4.90;;;;;;;12.82;72.23;98680.19;4880871;29;20060;-89
2023/10/14 11:02:18;;;;;;;14.35;4.32;;;;;;;12.73;72.48;98674.81;4890091;29;20045;-86
2023/10/14 11:04:48;;;;;;;10.52;4.20;;;;;;;12.61;72.97;98647.38;4860903;29;20056;-88
2023/10/14 11:07:15;;;;;;;9.23;4.65;;;;;;;12.86;73.60;98687.38;4891867;29;20565;-94
2023/10/14 11:09:43;;;;;;;10.68;4.40;;;;;;;12.86;73.56;98670.94;4890869;29;20057;-87
2023/10/14 11:12:11;;;;;;;12.52;4.57;;;;;;;12.86;72.46;98665.44;4889579;29;20056;-87
2023/10/14 11:14:38;;;;;;;12.25;4.70;;;;;;;13.14;72.43;98683.91;4890277;29;20108;-87
2023/10/14 11:17:13;;;;;;;;;;;;;;;13.15;72.21;98689.09;4890524;29;20104;-88
2023/10/14 11:19:39;;;;;;;13.75;4.43;;;;;;;13.21;71.76;98680.59;4890317;29;19989;-92
2023/10/14 11:22:06;;;;;;;13.35;4.18;;;;;;;13.03;71.54;98656.16;4890674;29;20108;-89
2023/10/14 11:24:32;;;;;;;;;;;;;;;13.23;70.75;98687.34;4887313;29;20052;-86
2023/10/14 11:27:02;;;;;;;13.40;4.17;;;;;;;13.27;71.16;98669.06;4888050;29;20398;-86
2023/10/14 11:29:33;;;;;;;11.45;4.00;;;;;;;13.11;70.37;98632.47;4889438;29;20392;-86
2023/10/14 11:32:02;;;;;;;17.35;4.80;;;;;;;13.11;69.65;98637.97;4889086;29;20049;-86
2023/10/14 11:34:35;;;;;;;14.00;4.63;;;;;;;13.49;70.08;98680.69;4888621;29;20044;-86
2023/10/14 11:37:02;;;;;;;13.20;4.53;;;;;;;13.35;69.45;98659.13;4889012;29;20096;-89
2023/10/14 11:39:32;;;;;;;6.63;3.83;;;;;;;13.46;69.37;98664.91;4891896;29;20041;-87
2023/10/14 11:42:01;;;;;;;10.77;3.90;;;;;;;13.33;69.71;98650.41;4889320;29;20116;-87
2023/10/14 11:44:28;;;;;;;9.75;4.50;;;;;;;13.40;69.57;98654.16;4870914;29;20045;-87
2023/10/14 11:46:57;;;;;;;15.10;4.82;;;;;;;13.36;69.24;98634.03;4907379;29;20069;-86
2023/10/14 11:49:30;;;;;;;11.23;4.32;;;;;;;13.54;69.49;98680.44;4888595;29;20041;-86
2023/10/14 11:52:04;;;;;;;13.35;4.85;;;;;;;13.52;69.51;98669.03;4889955;29;20075;-87
2023/10/14 11:54:31;;;;;;;9.25;4.45;;;;;;;13.24;69.22;98622.28;4893139;29;20045;-90
2023/10/14 11:56:58;;;;;;;;;;;;;;;13.52;69.44;98669.81;4891256;29;20048;-86
2023/10/14 11:59:25;;;;;;;13.32;4.50;;;;;;;13.54;69.59;98647.47;4881246;29;19904;-87
2023/10/14 12:01:51;;;;;;;9.52;4.35;;;;;;;13.37;69.86;98627.41;4908737;29;20041;-92
2023/10/14 12:04:17;;;;;;;10.57;4.60;;;;;;;13.59;69.67;98652.75;4908201;29;20049;-89
2023/10/14 12:06:44;;;;;;;10.15;4.70;;;;;;;13.35;69.71;98616.00;4908813;29;20101;-94
2023/10/14 12:09:11;;;;;;;14.10;4.75;;;;;;;13.67;69.51;98649.03;4922721;29;20636;-90
2023/10/14 12:11:44;;;;;;;9.90;4.33;;;;;;;13.49;69.45;98612.84;4908807;29;20048;-88
2023/10/14 12:14:11;;;;;;;9.48;4.40;;;;;;;13.35;69.63;98588.53;4907532;29;20052;-86
2023/10/14 12:16:40;;;;;;;10.40;4.43;;;;;;;13.63;69.51;98620.69;4905172;29;20036;-86
2023/10/14 12:19:11;;;;;;;11.20;4.68;;;;;;;13.65;69.64;98623.09;4905382;29;20040;-86
2023/10/14 12:21:41;;;;;;;8.65;4.30;;;;;;;13.69;69.51;98622.03;4906114;29;20067;-86
2023/10/14 12:24:09;;;;;;;10.27;4.85;;;;;;;13.49;69.41;98590.09;4890822;29;20036;-85
2023/10/14 12:26:42;;;;;;;;;;;;;;;13.80;69.57;98609.38;4906608;29;20601;-86
2023/10/14 12:29:09;;;;;;;8.88;4.50;;;;;;;13.72;69.96;98604.84;4910389;29;19975;-90
2023/10/14 12:31:38;;;;;;;11.88;7.07;;;;;;;13.60;70.22;98577.44;4907607;29;20103;-85
2023/10/14 12:34:07;;;;;;;12.35;5.05;;;;;;;13.62;70.54;98575.94;4904727;29;20044;-85
2023/10/14 12:36:34;;;;;;;12.63;6.07;;;;;;;13.96;70.22;98608.59;4905586;29;20077;-86
2023/10/14 12:39:08;;;;;;;;;;;;;;;14.08;69.50;98627.78;4911026;29;20167;-86
2023/10/14 12:41:39;;;;;;;12.85;6.15;;;;;;;14.16;69.35;98621.31;4906858;29;20014;-86
2023/10/14 12:44:13;;;;;;;10.90;5.57;;;;;;;13.89;69.10;98576.25;4908649;29;20044;-88
2023/10/14 12:46:43;;;;;;;14.95;6.07;;;;;;;14.10;68.98;98618.03;4912374;29;20044;-88
2023/10/14 12:49:11;;;;;;;14.10;5.28;;;;;;;13.75;69.01;98546.47;4861101;29;20148;-87
2023/10/14 12:51:43;;;;;;;18.55;6.60;;;;;;;13.93;68.99;98554.38;4907091;29;20127;-87
2023/10/14 12:54:18;;;;;;;11.10;6.30;;;;;;;14.08;68.85;98581.84;4908155;29;20628;-86
2023/10/14 12:56:50;;;;;;;15.30;6.30;;;;;;;13.97;69.25;98563.47;4892426;29;20041;-87
2023/10/14 12:59:16;;;;;;;13.07;5.47;;;;;;;13.73;69.15;98535.03;4906491;29;20072;-88
2023/10/14 13:01:46;;;;;;;12.50;5.50;;;;;;;14.11;69.14;98572.09;4908003;29;20040;-87
2023/10/14 13:04:16;;;;;;;12.10;5.57;;;;;;;14.06;69.05;98567.66;4923571;29;20027;-88
2023/10/14 13:06:44;;;;;;;9.52;5.07;;;;;;;14.20;68.95;98571.91;4918315;29;20036;-87